| time (UTC) | temp F | wind direction | speed knots | gust knots | rain 1hr in | rain 24hr in | rain mn in | humidity % | barometer mb |
| 20260508033602 | 44 | 64 | 0.9 | 4.3 | 0.00 | 1.09 | 0.00 | 99 | 1001.9 |
| 20260508032555 | 44 | 327 | 0.9 | 3.5 | 0.00 | 1.09 | 0.00 | 99 | 1001.9 |
| 20260508032050 | 44 | 21 | 0.0 | 3.5 | 0.00 | 1.09 | 0.00 | 99 | 1001.9 |
| 20260508031051 | 44 | 3 | 0.0 | 3.5 | 0.00 | 1.09 | 0.00 | 99 | 1002.0 |
| 20260508030114 | 44 | 337 | 0.9 | 3.5 | 0.01 | 1.09 | 0.00 | 99 | 1001.9 |
| 20260508025558 | 45 | 337 | 0.9 | 4.3 | 0.01 | 1.09 | 1.09 | 99 | 1001.9 |
| 20260508024605 | 45 | 309 | 0.9 | 3.5 | 0.02 | 1.09 | 1.09 | 99 | 1001.6 |
| 20260508023552 | 45 | 125 | 0.9 | 2.6 | 0.02 | 1.09 | 1.09 | 99 | 1001.8 |
| 20260508022602 | 45 | 196 | 0.9 | 1.7 | 0.02 | 1.09 | 1.09 | 99 | 1002.1 |
| 20260508022049 | 45 | 335 | 0.0 | 0.9 | 0.02 | 1.09 | 1.09 | 99 | 1001.8 |
| 20260508021058 | 45 | 335 | 0.0 | 3.5 | 0.04 | 1.09 | 1.09 | 99 | 1001.9 |
| 20260508020103 | 45 | 347 | 0.9 | 3.5 | 0.04 | 1.09 | 1.09 | 99 | 1002.2 |
| 20260508015550 | 45 | 347 | 0.0 | 3.5 | 0.04 | 1.09 | 1.09 | 99 | 1002.2 |
| 20260508015044 | 45 | 347 | 0.9 | 3.5 | 0.04 | 1.09 | 1.09 | 99 | 1002.4 |
| 20260508014059 | 45 | 347 | 0.0 | 5.2 | 0.04 | 1.08 | 1.08 | 99 | 1002.3 |
| 20260508013115 | 45 | 327 | 2.6 | 5.2 | 0.04 | 1.07 | 1.07 | 98 | 1002.0 |
| 20260508012556 | 45 | 347 | 1.7 | 6.1 | 0.05 | 1.07 | 1.07 | 99 | 1002.1 |
| 20260508012050 | 45 | 288 | 2.6 | 6.1 | 0.05 | 1.07 | 1.07 | 98 | 1002.0 |
| 20260508011058 | 45 | 42 | 1.7 | 5.2 | 0.05 | 1.05 | 1.05 | 98 | 1002.1 |
| 20260508010105 | 45 | 350 | 2.6 | 5.2 | 0.07 | 1.04 | 1.04 | 98 | 1002.1 |
| 20260508005103 | 45 | 347 | 0.9 | 3.5 | 0.10 | 1.04 | 1.04 | 98 | 1002.1 |
| 20260508004559 | 45 | 97 | 0.0 | 3.5 | 0.11 | 1.04 | 1.04 | 98 | 1002.1 |
| 20260508003556 | 45 | 216 | 0.0 | 1.7 | 0.15 | 1.04 | 1.04 | 98 | 1002.1 |
| 20260508003059 | 45 | 220 | 0.0 | 1.7 | 0.17 | 1.03 | 1.03 | 98 | 1002.2 |
| 20260508002050 | 45 | 242 | 0.0 | 3.5 | 0.20 | 1.02 | 1.02 | 98 | 1002.2 |
| 20260508001110 | 45 | 243 | 2.6 | 5.2 | 0.19 | 1.00 | 1.00 | 98 | 1002.0 |
| 20260508000057 | 45 | 276 | 1.7 | 5.2 | 0.17 | 0.98 | 0.98 | 98 | 1001.9 |
| 20260507235056 | 45 | 166 | 3.5 | 7.8 | 0.13 | 0.94 | 0.94 | 97 | 1001.8 |
| 20260507234543 | 45 | 216 | 4.3 | 10.4 | 0.12 | 0.93 | 0.93 | 97 | 1001.7 |
| 20260507233600 | 44 | 223 | 6.1 | 11.3 | 0.07 | 0.88 | 0.88 | 96 | 1001.6 |
| 20260507232600 | 45 | 227 | 6.1 | 13.0 | 0.02 | 0.83 | 0.83 | 95 | 1001.5 |
| 20260507231556 | 45 | 278 | 5.2 | 13.0 | 0.00 | 0.81 | 0.81 | 92 | 1001.4 |
| 20260507230603 | 50 | 235 | 3.5 | 16.5 | 0.00 | 0.81 | 0.81 | 87 | 1001.3 |
| 20260507225605 | 54 | 247 | 9.6 | 20.9 | 0.00 | 0.81 | 0.81 | 90 | 1000.8 |
| 20260507225105 | 54 | 237 | 9.6 | 21.7 | 0.00 | 0.81 | 0.81 | 90 | 1000.7 |
| 20260507224600 | 55 | 232 | 8.7 | 20.0 | 0.00 | 0.81 | 0.81 | 90 | 1000.6 |
| 20260507224051 | 55 | 229 | 10.4 | 20.0 | 0.00 | 0.81 | 0.81 | 90 | 1000.6 |
| 20260507223100 | 54 | 208 | 9.6 | 21.7 | 0.00 | 0.81 | 0.81 | 90 | 1000.5 |
| 20260507222104 | 54 | 200 | 9.6 | 22.6 | 0.00 | 0.81 | 0.81 | 91 | 1000.6 |
| 20260507221544 | 54 | 225 | 12.2 | 21.7 | 0.00 | 0.81 | 0.81 | 91 | 1000.6 |
| 20260507220602 | 54 | 210 | 9.6 | 21.7 | 0.00 | 0.81 | 0.81 | 91 | 1000.5 |
| 20260507220051 | 54 | 212 | 11.3 | 21.7 | 0.00 | 0.81 | 0.81 | 92 | 1000.5 |
| 20260507215100 | 53 | 193 | 9.6 | 17.4 | 0.00 | 0.81 | 0.81 | 92 | 1000.4 |
| 20260507214100 | 54 | 200 | 9.6 | 22.6 | 0.00 | 0.81 | 0.81 | 92 | 1000.3 |
| 20260507213559 | 54 | 202 | 11.3 | 20.0 | 0.00 | 0.81 | 0.81 | 92 | 1000.3 |
| 20260507213056 | 53 | 215 | 11.3 | 20.0 | 0.00 | 0.81 | 0.81 | 93 | 1000.2 |
| 20260507212557 | 54 | 157 | 11.3 | 20.0 | 0.00 | 0.81 | 0.81 | 92 | 1000.1 |
| 20260507211552 | 54 | 190 | 13.0 | 24.3 | 0.00 | 0.81 | 0.81 | 92 | 1000.1 |
| 20260507210602 | 53 | 210 | 12.2 | 26.1 | 0.01 | 0.81 | 0.81 | 94 | 1000.1 |
| 20260507205600 | 53 | 200 | 14.8 | 24.3 | 0.02 | 0.81 | 0.81 | 95 | 1000.0 |
| 20260507204600 | 53 | 178 | 12.2 | 25.2 | 0.06 | 0.81 | 0.81 | 97 | 1000.1 |
| 20260507203559 | 51 | 178 | 13.9 | 23.5 | 0.09 | 0.81 | 0.81 | 97 | 999.8 |
| 20260507203101 | 51 | 206 | 14.8 | 23.5 | 0.10 | 0.81 | 0.81 | 97 | 999.6 |
| 20260507202058 | 51 | 185 | 15.6 | 26.1 | 0.12 | 0.81 | 0.81 | 97 | 999.1 |
| 20260507201558 | 51 | 221 | 18.2 | 26.9 | 0.13 | 0.81 | 0.81 | 97 | 998.9 |
| 20260507200547 | 51 | 158 | 20.0 | 32.2 | 0.15 | 0.80 | 0.80 | 97 | 998.5 |
| 20260507195556 | 51 | 142 | 19.1 | 29.5 | 0.17 | 0.79 | 0.79 | 97 | 999.3 |
| 20260507194554 | 51 | 173 | 16.5 | 30.4 | 0.16 | 0.76 | 0.76 | 97 | 999.8 |
| 20260507193106 | 52 | 208 | 10.4 | 19.1 | 0.14 | 0.70 | 0.70 | 97 | 1001.7 |
| 20260507192100 | 52 | 221 | 11.3 | 20.0 | 0.16 | 0.69 | 0.69 | 97 | 1002.2 |
| 20260507191600 | 52 | 208 | 11.3 | 23.5 | 0.17 | 0.68 | 0.68 | 97 | 1002.1 |
| 20260507191054 | 52 | 229 | 13.9 | 26.9 | 0.17 | 0.65 | 0.65 | 97 | 1002.0 |
| 20260507185548 | 53 | 202 | 15.6 | 26.1 | 0.22 | 0.62 | 0.62 | 97 | 1002.3 |
| 20260507184606 | 53 | 144 | 16.5 | 31.3 | 0.28 | 0.60 | 0.60 | 97 | 1002.2 |
| 20260507183543 | 53 | 188 | 19.1 | 32.2 | 0.42 | 0.57 | 0.57 | 97 | 1001.8 |
| 20260507182604 | 53 | 179 | 25.2 | 36.5 | 0.50 | 0.54 | 0.54 | 97 | 1001.8 |
| 20260507182057 | 53 | 210 | 24.3 | 40.0 | 0.50 | 0.52 | 0.52 | 97 | 1001.9 |
| 20260507181548 | 53 | 205 | 24.3 | 40.0 | 0.48 | 0.50 | 0.50 | 97 | 1001.8 |
| 20260507180603 | 53 | 185 | 26.1 | 40.0 | 0.45 | 0.46 | 0.46 | 97 | 1001.8 |
| 20260507180056 | 53 | 247 | 23.5 | 36.5 | 0.43 | 0.43 | 0.43 | 97 | 1002.0 |
| 20260507175101 | 53 | 170 | 10.4 | 20.0 | 0.36 | 0.36 | 0.36 | 97 | 1002.9 |
| 20260507174055 | 54 | 224 | 13.9 | 27.8 | 0.21 | 0.21 | 0.21 | 97 | 1002.5 |
| 20260507173104 | 54 | 185 | 15.6 | 31.3 | 0.08 | 0.08 | 0.08 | 96 | 1002.4 |
| 20260507172550 | 55 | 204 | 14.8 | 31.3 | 0.04 | 0.04 | 0.04 | 95 | 1002.1 |
| 20260507171624 | 55 | 221 | 13.9 | 28.7 | 0.02 | 0.02 | 0.02 | 94 | 1001.8 |
| 20260507170556 | 55 | 198 | 17.4 | 30.4 | 0.01 | 0.01 | 0.01 | 93 | 1001.6 |
| 20260507165552 | 56 | 196 | 19.1 | 30.4 | 0.00 | 0.00 | 0.00 | 92 | 1001.7 |
| 20260507164603 | 58 | 200 | 20.0 | 34.8 | 0.00 | 0.00 | 0.00 | 86 | 1002.2 |
| 20260507164052 | 58 | 194 | 17.4 | 34.8 | 0.00 | 0.00 | 0.00 | 84 | 1002.1 |
| 20260507163101 | 59 | 213 | 23.5 | 35.6 | 0.00 | 0.00 | 0.00 | 83 | 1001.5 |
| 20260507162101 | 59 | 202 | 20.9 | 40.0 | 0.00 | 0.00 | 0.00 | 83 | 1002.1 |
| 20260507161101 | 58 | 166 | 20.0 | 39.1 | 0.00 | 0.00 | 0.00 | 84 | 1002.3 |
| 20260507160101 | 59 | 210 | 26.1 | 42.6 | 0.00 | 0.00 | 0.00 | 84 | 1001.8 |
| 20260507155127 | 59 | 227 | 25.2 | 40.0 | 0.00 | 0.00 | 0.00 | 82 | 1002.1 |
| 20260507154042 | 59 | 178 | 26.1 | 41.7 | 0.00 | 0.00 | 0.00 | 79 | 1002.1 |
| 20260507153104 | 60 | 214 | 29.5 | 46.9 | 0.00 | 0.00 | 0.00 | 77 | 1001.8 |
| 20260507152558 | 59 | 194 | 25.2 | 42.6 | 0.00 | 0.00 | 0.00 | 79 | 1002.7 |
| 20260507151608 | 59 | 198 | 27.8 | 41.7 | 0.00 | 0.00 | 0.00 | 79 | 1002.0 |
| 20260507150601 | 59 | 201 | 28.7 | 43.4 | 0.00 | 0.00 | 0.00 | 80 | 1002.8 |
| 20260507145607 | 59 | 250 | 32.2 | 43.4 | 0.00 | 0.00 | 0.00 | 79 | 1002.6 |
| 20260507144603 | 59 | 220 | 28.7 | 39.1 | 0.00 | 0.00 | 0.00 | 80 | 1003.0 |
| 20260507144059 | 59 | 216 | 26.1 | 43.4 | 0.00 | 0.00 | 0.00 | 80 | 1003.3 |
| 20260507143052 | 58 | 183 | 28.7 | 46.1 | 0.00 | 0.00 | 0.00 | 81 | 1002.3 |
| 20260507142548 | 58 | 191 | 32.2 | 46.1 | 0.00 | 0.00 | 0.00 | 80 | 1003.2 |
| 20260507142039 | 59 | 223 | 28.7 | 43.4 | 0.00 | 0.00 | 0.00 | 80 | 1002.8 |
| 20260507141100 | 58 | 182 | 27.8 | 40.0 | 0.00 | 0.00 | 0.00 | 81 | 1003.4 |
| 20260507140549 | 58 | 174 | 26.1 | 40.0 | 0.00 | 0.00 | 0.00 | 81 | 1003.5 |
| 20260507135548 | 58 | 203 | 29.5 | 51.3 | 0.00 | 0.00 | 0.00 | 81 | 1003.3 |
| 20260507134559 | 59 | 198 | 25.2 | 38.2 | 0.00 | 0.00 | 0.00 | 81 | 1004.1 |
| 20260507133600 | 58 | 195 | 25.2 | 39.1 | 0.00 | 0.00 | 0.00 | 83 | 1003.4 |
| 20260507132558 | 58 | 196 | 22.6 | 37.4 | 0.00 | 0.00 | 0.00 | 84 | 1003.9 |
| 20260507132055 | 58 | 164 | 24.3 | 40.0 | 0.00 | 0.00 | 0.00 | 84 | 1003.9 |
| 20260507130558 | 60 | 216 | 23.5 | 38.2 | 0.00 | 0.00 | 0.00 | 82 | 1004.2 |
| 20260507130048 | 59 | 189 | 21.7 | 39.1 | 0.00 | 0.00 | 0.00 | 84 | 1003.8 |
| 20260507125101 | 59 | 220 | 21.7 | 36.5 | 0.00 | 0.00 | 0.00 | 84 | 1004.3 |
| 20260507124100 | 58 | 213 | 22.6 | 36.5 | 0.00 | 0.00 | 0.00 | 85 | 1004.4 |
| 20260507123113 | 57 | 222 | 24.3 | 40.8 | 0.00 | 0.00 | 0.00 | 86 | 1004.5 |
| 20260507122054 | 57 | 184 | 24.3 | 40.0 | 0.00 | 0.00 | 0.00 | 87 | 1004.2 |
| 20260507121059 | 56 | 200 | 26.9 | 38.2 | 0.00 | 0.00 | 0.00 | 87 | 1004.1 |
| 20260507120555 | 57 | 256 | 25.2 | 42.6 | 0.00 | 0.00 | 0.00 | 86 | 1004.3 |
| 20260507115600 | 57 | 208 | 21.7 | 42.6 | 0.00 | 0.00 | 0.00 | 87 | 1004.7 |
| 20260507115047 | 57 | 155 | 26.9 | 42.6 | 0.00 | 0.00 | 0.00 | 87 | 1005.0 |
| 20260507114104 | 57 | 177 | 21.7 | 39.1 | 0.00 | 0.00 | 0.00 | 88 | 1005.2 |
| 20260507113548 | 57 | 172 | 23.5 | 41.7 | 0.00 | 0.00 | 0.00 | 87 | 1005.7 |
| 20260507112608 | 57 | 218 | 26.1 | 39.1 | 0.00 | 0.00 | 0.00 | 87 | 1005.2 |
| 20260507111606 | 57 | 179 | 25.2 | 39.1 | 0.00 | 0.00 | 0.00 | 87 | 1005.5 |
| 20260507111104 | 57 | 191 | 26.9 | 40.0 | 0.00 | 0.00 | 0.00 | 87 | 1005.4 |
| 20260507110100 | 56 | 189 | 21.7 | 33.9 | 0.00 | 0.00 | 0.00 | 88 | 1005.7 |
| 20260507105049 | 56 | 197 | 22.6 | 37.4 | 0.00 | 0.00 | 0.00 | 88 | 1006.5 |
| 20260507104103 | 55 | 225 | 20.9 | 37.4 | 0.00 | 0.00 | 0.00 | 89 | 1006.0 |
| 20260507103546 | 56 | 179 | 24.3 | 42.6 | 0.00 | 0.00 | 0.00 | 89 | 1006.1 |
| 20260507103043 | 56 | 175 | 24.3 | 39.1 | 0.00 | 0.00 | 0.00 | 88 | 1006.2 |
| 20260507102100 | 56 | 157 | 24.3 | 43.4 | 0.00 | 0.00 | 0.00 | 88 | 1006.0 |
| 20260507101557 | 56 | 132 | 24.3 | 43.4 | 0.00 | 0.00 | 0.00 | 88 | 1006.2 |
| 20260507100555 | 56 | 200 | 24.3 | 37.4 | 0.00 | 0.00 | 0.00 | 88 | 1006.6 |
| 20260507095552 | 56 | 171 | 20.0 | 33.9 | 0.00 | 0.00 | 0.00 | 86 | 1006.8 |
| 20260507095045 | 56 | 171 | 20.9 | 36.5 | 0.00 | 0.00 | 0.00 | 85 | 1007.1 |
| 20260507094054 | 56 | 185 | 23.5 | 36.5 | 0.00 | 0.00 | 0.00 | 85 | 1007.4 |
| 20260507093045 | 56 | 212 | 20.9 | 38.2 | 0.00 | 0.00 | 0.00 | 87 | 1007.4 |
| 20260507092544 | 56 | 168 | 21.7 | 33.0 | 0.00 | 0.00 | 0.00 | 88 | 1007.6 |
| 20260507092038 | 55 | 175 | 20.9 | 32.2 | 0.00 | 0.00 | 0.00 | 88 | 1007.7 |
| 20260507091101 | 55 | 146 | 20.9 | 37.4 | 0.00 | 0.00 | 0.00 | 88 | 1007.8 |
| 20260507090556 | 55 | 137 | 21.7 | 37.4 | 0.00 | 0.00 | 0.00 | 88 | 1008.0 |
| 20260507085602 | 55 | 237 | 20.0 | 33.0 | 0.00 | 0.00 | 0.00 | 89 | 1008.0 |
| 20260507085053 | 55 | 197 | 17.4 | 33.0 | 0.00 | 0.00 | 0.00 | 88 | 1008.5 |
| 20260507084101 | 55 | 214 | 16.5 | 29.5 | 0.00 | 0.00 | 0.00 | 88 | 1009.3 |
| 20260507083554 | 56 | 243 | 18.2 | 30.4 | 0.00 | 0.00 | 0.00 | 87 | 1008.4 |
| 20260507082602 | 56 | 175 | 16.5 | 33.0 | 0.00 | 0.00 | 0.00 | 87 | 1008.5 |
| 20260507082055 | 56 | 210 | 20.0 | 33.0 | 0.00 | 0.00 | 0.00 | 86 | 1008.2 |
| 20260507081549 | 56 | 178 | 21.7 | 33.0 | 0.00 | 0.00 | 0.00 | 87 | 1008.6 |
| 20260507081045 | 57 | 204 | 18.2 | 30.4 | 0.00 | 0.00 | 0.00 | 86 | 1008.9 |
| 20260507080116 | 57 | 191 | 22.6 | 33.9 | 0.00 | 0.00 | 0.00 | 86 | 1009.0 |
| 20260507075559 | 57 | 183 | 19.1 | 32.2 | 0.00 | 0.00 | 0.00 | 85 | 1009.3 |
| 20260507075052 | 57 | 225 | 20.0 | 33.9 | 0.00 | 0.00 | 0.00 | 85 | 1009.5 |
| 20260507074053 | 58 | 202 | 21.7 | 33.9 | 0.00 | 0.00 | 0.00 | 84 | 1009.4 |
| 20260507073551 | 58 | 205 | 22.6 | 36.5 | 0.00 | 0.00 | 0.00 | 84 | 1009.4 |
| 20260507072549 | 57 | 202 | 20.0 | 33.9 | 0.00 | 0.00 | 0.00 | 83 | 1009.8 |
| 20260507072045 | 57 | 190 | 22.6 | 33.9 | 0.00 | 0.00 | 0.00 | 83 | 1010.0 |
| 20260507071542 | 57 | 143 | 20.9 | 33.9 | 0.00 | 0.00 | 0.00 | 84 | 1010.1 |
| 20260507070552 | 57 | 185 | 18.2 | 33.9 | 0.00 | 0.00 | 0.00 | 84 | 1010.1 |
| 20260507065555 | 57 | 213 | 19.1 | 35.6 | 0.00 | 0.00 | 0.00 | 82 | 1010.2 |
| 20260507064554 | 57 | 159 | 19.1 | 30.4 | 0.00 | 0.00 | 0.00 | 81 | 1010.3 |
| 20260507063602 | 58 | 158 | 20.9 | 33.0 | 0.00 | 0.00 | 0.00 | 80 | 1010.0 |
| 20260507062554 | 59 | 235 | 20.0 | 37.4 | 0.00 | 0.00 | 0.00 | 77 | 1010.2 |
| 20260507062052 | 59 | 196 | 22.6 | 40.0 | 0.00 | 0.00 | 0.00 | 76 | 1010.0 |
| 20260507061054 | 60 | 195 | 22.6 | 35.6 | 0.00 | 0.00 | 0.00 | 72 | 1010.5 |
| 20260507060100 | 59 | 191 | 22.6 | 33.9 | 0.00 | 0.00 | 0.00 | 72 | 1010.5 |
| 20260507055101 | 60 | 186 | 22.6 | 35.6 | 0.00 | 0.00 | 0.00 | 71 | 1010.5 |
| 20260507054549 | 60 | 210 | 24.3 | 40.0 | 0.00 | 0.00 | 0.00 | 66 | 1011.1 |
| 20260507053550 | 59 | 221 | 21.7 | 35.6 | 0.00 | 0.00 | 0.00 | 66 | 1010.9 |
| 20260507052558 | 59 | 189 | 22.6 | 34.8 | 0.00 | 0.00 | 0.00 | 62 | 1011.4 |
| 20260507051606 | 59 | 223 | 20.0 | 30.4 | 0.00 | 0.00 | 0.00 | 63 | 1011.7 |
| 20260507050553 | 59 | 243 | 20.0 | 33.0 | 0.00 | 0.00 | 0.00 | 64 | 1012.1 |
| 20260507050044 | 59 | 198 | 19.1 | 33.0 | 0.00 | 0.00 | 0.00 | 61 | 1011.8 |
| 20260507045053 | 59 | 219 | 19.1 | 36.5 | 0.00 | 0.00 | 0.00 | 63 | 1012.5 |
| 20260507044540 | 58 | 225 | 23.5 | 36.5 | 0.00 | 0.00 | 0.00 | 65 | 1012.3 |
| 20260507043600 | 58 | 171 | 23.5 | 36.5 | 0.00 | 0.00 | 0.00 | 65 | 1012.6 |
| 20260507042559 | 58 | 202 | 19.1 | 32.2 | 0.00 | 0.00 | 0.00 | 72 | 1013.1 |
| 20260507041600 | 58 | 233 | 20.0 | 30.4 | 0.00 | 0.00 | 0.00 | 74 | 1013.5 |
| 20260507041045 | 58 | 208 | 15.6 | 29.5 | 0.00 | 0.00 | 0.00 | 74 | 1013.8 |
| 20260507040109 | 58 | 229 | 15.6 | 33.0 | 0.00 | 0.00 | 0.00 | 76 | 1013.8 |
| 20260507035055 | 58 | 220 | 19.1 | 33.9 | 0.00 | 0.00 | 0.00 | 77 | 1013.7 |
| 20260507034539 | 58 | 189 | 19.1 | 34.8 | 0.00 | 0.00 | 0.00 | 78 | 1014.1 |